March ARB Airport
KRIV : rendu visible

Aérodrome :











RETROUVEZ-NOUS SUR...

 
LOGIN :

S'inscrire | Disclaimer

   EN    FR    IT 

 









Légende :    VFR   VFR Marginal   IFR   IFR Intensif   IFR Très Intensif
Visi : 
Plafond : 
>= 8 km
>= 3000ft
5 à 8 km
1000 à 3000 ft
1500m à 5 km
500 à 1000 ft
800 à 1500m
200 à 500 ft
< 800m
< 200 ft
Symboles :   Orages  Brouillard  Fortes neiges  Fortes précipitations  Vent > 20 kt






- Altitude de l'aérodrome : 1536 ft


KRIV - March ARB

DERNIER METAR :
  • 200409Z AUTO 28005KT 10SM -RA FEW007 FEW038 SCT075 BKN090 16/16 A2961 RMK AO2 SLP020

METARs EXPIRÉS :
  • 200358Z AUTO 27003KT 10SM -RA FEW017 SCT040 BKN075 BKN095 16/16 A2961 RMK AO2 SLP020 P0016 T01590159
  • 200258Z AUTO 17007KT 8SM RA FEW026 SCT034 BKN060 OVC080 17/17 A2963 RMK AO2 RAB22E32RAB37E49RAB51 SLP027 P0001 60001 T01710171 57011
  • 200251Z AUTO 18007KT 10SM -RA FEW013 FEW026 BKN034 BKN070 OVC080 17/17 A2963 RMK AO2 RAB22E32RAB37E49RAB51 SLP028
  • 200237Z AUTO 17008KT 10SM -RA FEW013 BKN037 OVC047 17/17 A2964 RMK AO2 RAB22E32RAB37 SLP033
  • 200232Z AUTO 18009KT 10SM FEW013 BKN039 BKN049 OVC090 17/17 A2964 RMK AO2 RAB22E32 SLP033
  • 200222Z AUTO 17010KT 10SM -RA SCT013 BKN041 BKN049 OVC095 17/17 A2964 RMK AO2 RAB22 SLP033
  • 200213Z AUTO 17010KT 10SM BKN013 BKN045 OVC095 18/18 A2965 RMK AO2 BKN013 V OVC SLP035
  • 200158Z AUTO 16010KT 10SM OVC014 18/18 A2964 RMK AO2 SLP032 T01770177
  • 200128Z AUTO 15010G17KT 10SM BKN014 OVC100 18/18 A2965 RMK AO2 CIG 014V100 SLP035

TAF TAF KRIV
Valide du 20 à 04h jusqu'au 21 à 10h UTC


200400Z 2004/2110 VRB06KT 9999 -SHRA SCT020 BKN030 OVC080 540509 QNH2958INS
TEMPO 2004/2012 20009KT 6000 SHRA BR BKN015 OVC050
TEMPO 2012/2019 18010G15KT 6000 SHRA VCTS BKN015 BKN030 OVC080CB
BECMG 2018/2019 20012KT 6000 RA BR BKN010 OVC030 540109 QNH2962INS
TEMPO 2019/2101 21012G20KT 4800 -TSRA BR BKN010 BKN020 OVC080
BECMG 2102/2103 15009KT 9999 NSW BKN010 BKN020 OVC080 QNH2966INS
TEMPO 2103/2110 8000 -RA BR TX16/2004Z TN12/2011Z



MET'MAP, la Météo Aéronautique d'un coup d'oeil ! - Copyright ORBIFLY Décembre 2007 - Disclaimer

ORBIFLY MET'MAP TEAM :

Programmation & Développement : Alexandra Zaïnal
Conception & Développement : Baudouin d'Aumeries
Co-Programmation & Développement : Marc-Olivier Méhu
Soutien technique & logistique : Manuel Goepfert

Contact : metmap@orbifly.com




SOURCES & CREDITS :

   NOAA       Earth
Advisory